createdAt,value
2022-08-26T00:02:20.637Z,98341.91
2022-08-26T00:04:51.617Z,98334.84
2022-08-26T00:07:20.127Z,98339.25
2022-08-26T00:09:50.258Z,98331.53
2022-08-26T00:12:35.946Z,98334.66
2022-08-26T00:15:07.604Z,98333.19
2022-08-26T00:17:40.167Z,98340.06
2022-08-26T00:20:11.667Z,98331.53
2022-08-26T00:22:44.709Z,98328.78
2022-08-26T00:25:15.960Z,98334.31
2022-08-26T00:27:48.375Z,98346.97
2022-08-26T00:30:22.765Z,98335.66
2022-08-26T00:32:52.909Z,98333.19
2022-08-26T00:35:21.977Z,98333.81
2022-08-26T00:37:53.583Z,98338.13
2022-08-26T00:40:27.161Z,98330.53
2022-08-26T00:42:56.742Z,98326.63
2022-08-26T00:45:26.086Z,98322.75
2022-08-26T00:48:04.633Z,98326.34
2022-08-26T00:50:36.090Z,98321.72
2022-08-26T00:53:05.964Z,98317.78
2022-08-26T00:55:42.490Z,98334.84
2022-08-26T00:58:13.288Z,98329.59
2022-08-26T01:00:42.410Z,98326.09
2022-08-26T01:03:15.691Z,98329.41
2022-08-26T01:05:43.370Z,98326.94
2022-08-26T01:11:40.947Z,98321.38
2022-08-26T01:14:35.241Z,98334.41
2022-08-26T01:17:25.744Z,98327.25
2022-08-26T01:23:48.331Z,98331.66
2022-08-26T01:26:20.180Z,98336.88
2022-08-26T01:28:51.625Z,98333.41
2022-08-26T01:31:26.114Z,98338.34
2022-08-26T01:33:59.823Z,98331.75
2022-08-26T01:36:29.049Z,98334.22
2022-08-26T01:38:57.108Z,98334.03
2022-08-26T01:41:29.069Z,98334.94
2022-08-26T01:44:01.059Z,98323.97
2022-08-26T01:46:30.665Z,98322.31
2022-08-26T01:49:01.191Z,98319.03
2022-08-26T01:51:33.499Z,98323.44
2022-08-26T01:54:03.055Z,98323.97
2022-08-26T01:56:36.744Z,98319.34
2022-08-26T01:59:07.888Z,98313.50
2022-08-26T02:01:40.366Z,98319.03
2022-08-26T02:04:31.362Z,98323.97
2022-08-26T02:07:00.468Z,98311.31
2022-08-26T02:09:30.817Z,98327.03
2022-08-26T02:11:59.785Z,98315.25
2022-08-26T02:14:43.821Z,98322.63
2022-08-26T02:17:12.854Z,98309.72
2022-08-26T02:19:43.877Z,98320.25
2022-08-26T02:22:17.385Z,98311.94
2022-08-26T02:25:03.689Z,98319.03
2022-08-26T02:27:36.649Z,98310.84
2022-08-26T02:30:13.106Z,98320.66
2022-08-26T02:32:43.552Z,98323.44
2022-08-26T02:35:18.309Z,98313.19
2022-08-26T02:37:49.697Z,98308.06
2022-08-26T02:40:24.674Z,98312.69
2022-08-26T02:42:56.963Z,98304.66
2022-08-26T02:45:28.561Z,98303.16
2022-08-26T02:47:59.774Z,98303.63
2022-08-26T02:50:31.460Z,98299.31
2022-08-26T02:53:02.025Z,98307.03
2022-08-26T02:55:31.645Z,98308.69
2022-08-26T02:57:59.598Z,98304.56
2022-08-26T03:00:27.403Z,98315.34
2022-08-26T03:03:02.004Z,98305.09
2022-08-26T03:05:39.822Z,98298.72
2022-08-26T03:08:12.867Z,98299.84
2022-08-26T03:10:45.153Z,98312.78
2022-08-26T03:13:12.919Z,98300.97
2022-08-26T03:15:41.946Z,98293.78
2022-08-26T03:18:16.060Z,98305.38
2022-08-26T03:20:45.024Z,98304.84
2022-08-26T03:23:14.842Z,98298.53
2022-08-26T03:25:45.095Z,98299.13
2022-08-26T03:28:15.356Z,98306.50
2022-08-26T03:30:49.252Z,98290.81
2022-08-26T03:33:20.208Z,98293.28
2022-08-26T03:35:50.769Z,98295.53
2022-08-26T03:38:28.765Z,98287.84
2022-08-26T03:40:59.411Z,98306.31
2022-08-26T03:43:30.553Z,98299.94
2022-08-26T03:45:59.604Z,98302.81
2022-08-26T03:48:30.559Z,98299.94
2022-08-26T03:51:01.608Z,98299.66
2022-08-26T03:53:33.670Z,98307.63
2022-08-26T03:56:07.808Z,98297.28
2022-08-26T03:58:42.776Z,98301.06
2022-08-26T04:01:12.810Z,98302.22
2022-08-26T04:04:00.042Z,98298.91
2022-08-26T04:06:44.539Z,98290.41
2022-08-26T04:09:19.474Z,98286.19
2022-08-26T04:11:50.387Z,98297.06
2022-08-26T04:14:27.499Z,98291.22
2022-08-26T04:17:01.066Z,98291.81
2022-08-26T04:19:31.833Z,98283.53
2022-08-26T04:43:38.943Z,98283.84
2022-08-26T04:46:09.056Z,98288.47
2022-08-26T04:48:43.854Z,98296.16
2022-08-26T04:51:14.121Z,98289.59
2022-08-26T04:53:43.906Z,98287.94
2022-08-26T04:56:12.206Z,98290.72
2022-08-26T04:58:42.559Z,98289.06
2022-08-26T05:01:14.152Z,98275.31
2022-08-26T05:03:46.828Z,98284.34
2022-08-26T05:06:14.344Z,98274.81
2022-08-26T05:08:48.818Z,98277.78
2022-08-26T05:11:18.453Z,98276.44
2022-08-26T05:13:46.509Z,98281.56
2022-08-26T05:16:15.669Z,98284.13
2022-08-26T05:18:46.487Z,98281.38
2022-08-26T05:21:23.637Z,98280.25
2022-08-26T05:23:55.551Z,98285.47
2022-08-26T05:26:27.255Z,98285.78
2022-08-26T05:29:01.483Z,98287.44
2022-08-26T05:31:32.882Z,98300.13
2022-08-26T05:34:03.618Z,98286.81
2022-08-26T05:36:32.959Z,98274.19
2022-08-26T05:41:59.805Z,98280.84
2022-08-26T05:44:29.873Z,98280.84
2022-08-26T05:47:19.350Z,98291.31
2022-08-26T05:49:53.739Z,98292.16
2022-08-26T05:52:21.218Z,98297.91
2022-08-26T05:54:55.966Z,98292.97
2022-08-26T05:57:24.578Z,98273.88
2022-08-26T05:59:59.983Z,98287.63
2022-08-26T06:02:33.890Z,98275.22
2022-08-26T06:05:07.602Z,98268.53
2022-08-26T06:07:54.759Z,98267.53
2022-08-26T06:10:32.055Z,98276.56
2022-08-26T06:13:09.202Z,98259.50
2022-08-26T06:15:46.746Z,98261.97
2022-08-26T06:18:16.577Z,98264.56
2022-08-26T06:20:49.513Z,98268.16
2022-08-26T06:23:45.724Z,98272.03
2022-08-26T06:26:17.859Z,98273.59
2022-08-26T06:28:50.963Z,98278.81
2022-08-26T06:31:22.033Z,98275.22
2022-08-26T06:33:50.995Z,98271.41
2022-08-26T06:36:25.164Z,98272.88
2022-08-26T06:38:56.585Z,98279.44
2022-08-26T06:41:26.772Z,98281.56
2022-08-26T06:43:55.133Z,98282.50
2022-08-26T06:46:26.547Z,98286.00
2022-08-26T06:48:54.572Z,98280.25
2022-08-26T06:51:29.288Z,98277.47
2022-08-26T06:53:59.857Z,98285.25
2022-08-26T06:56:34.436Z,98294.00
2022-08-26T06:59:07.602Z,98288.56
2022-08-26T07:01:38.238Z,98276.13
2022-08-26T07:04:12.594Z,98275.31
2022-08-26T07:06:45.450Z,98273.06
2022-08-26T07:09:16.120Z,98282.50
2022-08-26T07:11:45.711Z,98287.09
2022-08-26T07:14:13.796Z,98280.53
2022-08-26T07:16:45.653Z,98285.16
2022-08-26T07:19:13.852Z,98281.66
2022-08-26T07:21:42.952Z,98287.44
2022-08-26T07:24:12.947Z,98268.16
2022-08-26T07:26:44.296Z,98273.69
2022-08-26T07:29:14.722Z,98282.69
2022-08-26T07:31:43.186Z,98266.50
2022-08-26T07:34:12.165Z,98271.94
2022-08-26T07:36:42.186Z,98273.69
2022-08-26T07:39:11.607Z,98280.75
2022-08-26T07:41:39.284Z,98269.16
2022-08-26T07:44:07.496Z,98273.06
2022-08-26T07:46:36.358Z,98273.06
2022-08-26T07:49:04.516Z,98277.97
2022-08-26T07:51:33.386Z,98273.88
2022-08-26T07:54:01.505Z,98280.44
2022-08-26T07:56:30.533Z,98278.22
2022-08-26T07:58:58.009Z,98267.53
2022-08-26T08:01:26.654Z,98273.06
2022-08-26T08:03:56.252Z,98285.69
2022-08-26T08:06:27.207Z,98274.09
2022-08-26T08:08:59.754Z,98277.69
2022-08-26T08:11:29.753Z,98284.03
2022-08-26T08:13:58.786Z,98285.16
2022-08-26T08:16:26.920Z,98279.63
2022-08-26T08:18:57.035Z,98274.63
2022-08-26T08:21:27.127Z,98281.78
2022-08-26T08:23:57.289Z,98279.00
2022-08-26T08:26:26.918Z,98271.31
2022-08-26T08:28:57.839Z,98270.50
2022-08-26T08:31:56.561Z,98272.44
2022-08-26T08:34:25.869Z,98277.97
2022-08-26T08:36:56.369Z,98265.28
2022-08-26T08:39:25.180Z,98262.81
2022-08-26T08:41:55.430Z,98269.06
2022-08-26T08:47:04.509Z,98265.28
2022-08-26T08:49:32.560Z,98253.69
2022-08-26T08:52:10.380Z,98264.84
2022-08-26T08:54:39.657Z,98254.41
2022-08-26T08:57:13.702Z,98257.66
2022-08-26T08:59:46.146Z,98256.84
2022-08-26T09:02:28.325Z,98251.94
2022-08-26T09:05:05.849Z,98255.44
2022-08-26T09:07:46.429Z,98232.84
2022-08-26T09:10:37.977Z,98239.72
2022-08-26T09:13:16.318Z,98239.72
2022-08-26T09:16:00.088Z,98236.03
2022-08-26T09:19:02.200Z,98240.13
2022-08-26T09:21:34.634Z,98222.19
2022-08-26T09:24:07.239Z,98228.75
2022-08-26T09:26:40.307Z,98225.34
2022-08-26T09:29:15.520Z,98219.81
2022-08-26T09:31:44.206Z,98212.13
2022-08-26T09:34:20.494Z,98203.00
2022-08-26T09:36:49.958Z,98209.06
2022-08-26T09:39:38.218Z,98204.53
2022-08-26T09:42:21.578Z,98208.97
2022-08-26T09:45:04.670Z,98202.06
2022-08-26T09:47:53.330Z,98207.13
2022-08-26T09:50:29.199Z,98199.59
2022-08-26T09:53:20.940Z,98206.19
2022-08-26T09:55:50.033Z,98207.31
2022-08-26T09:58:38.076Z,98197.97
2022-08-26T10:01:07.978Z,98202.91
2022-08-26T10:03:39.969Z,98204.00
2022-08-26T10:06:29.431Z,98199.59
2022-08-26T10:09:00.174Z,98200.13
2022-08-26T10:12:10.150Z,98199.72
2022-08-26T10:17:32.311Z,98209.44
2022-08-26T10:20:23.572Z,98204.53
2022-08-26T10:23:02.342Z,98203.28
2022-08-26T10:25:34.413Z,98195.09
2022-08-26T10:28:08.670Z,98190.69
2022-08-26T10:30:46.213Z,98191.81
2022-08-26T10:33:17.958Z,98190.34
2022-08-26T10:35:57.600Z,98188.75
2022-08-26T10:38:36.647Z,98191.72
2022-08-26T10:41:18.708Z,98194.66
2022-08-26T10:44:08.381Z,98184.41
2022-08-26T10:47:04.812Z,98193.53
2022-08-26T10:49:32.823Z,98179.50
2022-08-26T10:52:12.208Z,98186.34
2022-08-26T10:54:47.946Z,98188.19
2022-08-26T10:57:20.985Z,98184.31
2022-08-26T10:59:51.647Z,98180.41
2022-08-26T11:02:27.902Z,98185.44
2022-08-26T11:05:01.116Z,98173.81
2022-08-26T11:07:37.665Z,98176.47
2022-08-26T11:10:17.239Z,98179.25
2022-08-26T11:12:49.585Z,98178.94
2022-08-26T11:15:27.442Z,98177.00
2022-08-26T11:17:58.336Z,98168.81
2022-08-26T11:20:41.568Z,98174.22
2022-08-26T11:23:23.504Z,98175.88
2022-08-26T11:25:58.353Z,98169.19
2022-08-26T11:28:38.534Z,98159.38
2022-08-26T11:31:10.381Z,98146.34
2022-08-26T11:33:50.877Z,98149.28
2022-08-26T11:36:42.684Z,98145.69
2022-08-26T11:39:36.742Z,98147.00
2022-08-26T11:42:33.824Z,98140.88
2022-08-26T11:45:05.760Z,98147.00
2022-08-26T11:47:34.897Z,98145.28
2022-08-26T11:50:16.988Z,98138.09
2022-08-26T11:53:02.800Z,98132.03
2022-08-26T11:55:31.253Z,98129.44
2022-08-26T11:58:01.319Z,98137.66
2022-08-26T12:00:36.764Z,98132.75
2022-08-26T12:03:07.377Z,98121.97
2022-08-26T12:05:43.216Z,98111.50
2022-08-26T12:08:13.273Z,98121.66
2022-08-26T12:10:41.339Z,98120.84
2022-08-26T12:13:10.345Z,98129.56
2022-08-26T12:15:38.413Z,98119.88
2022-08-26T12:18:28.677Z,98112.91
2022-08-26T12:20:57.508Z,98102.13
2022-08-26T12:23:38.916Z,98118.88
2022-08-26T12:26:17.618Z,98113.31
2022-08-26T12:28:53.545Z,98114.78
2022-08-26T12:31:28.535Z,98098.94
2022-08-26T12:34:01.853Z,98108.59
2022-08-26T12:36:33.851Z,98109.91
2022-08-26T12:39:11.930Z,98106.00
2022-08-26T12:41:53.926Z,98100.16
2022-08-26T12:44:54.223Z,98110.31
2022-08-26T12:47:39.075Z,98107.97
2022-08-26T12:50:20.779Z,98114.50
2022-08-26T12:52:59.118Z,98097.75
2022-08-26T12:55:44.187Z,98095.44
2022-08-26T12:58:21.112Z,98106.25
2022-08-26T13:00:55.139Z,98101.34
2022-08-26T13:03:35.338Z,98101.69
2022-08-26T13:06:32.319Z,98088.78
2022-08-26T13:09:06.549Z,98088.34
2022-08-26T13:11:41.314Z,98094.91
2022-08-26T13:14:18.452Z,98089.34
2022-08-26T13:16:53.609Z,98095.09
2022-08-26T13:19:24.662Z,98089.53
2022-08-26T13:22:23.744Z,98080.41
2022-08-26T13:24:55.653Z,98092.69
2022-08-26T13:27:25.309Z,98083.03
2022-08-26T13:29:56.704Z,98077.69
2022-08-26T13:32:26.906Z,98083.72
2022-08-26T13:34:55.451Z,98084.56
2022-08-26T13:37:34.127Z,98077.69
2022-08-26T13:40:28.459Z,98085.56
2022-08-26T14:50:02.495Z,98055.47
2022-08-26T14:52:50.547Z,98056.44
2022-08-26T14:55:19.643Z,98055.94
2022-08-26T14:57:51.607Z,98051.56
2022-08-26T15:00:21.930Z,98050.91
2022-08-26T15:02:51.878Z,98063.97
2022-08-26T15:05:26.555Z,98058.44
2022-08-26T15:51:27.542Z,98051.66
2022-08-26T15:53:56.867Z,98046.09
2022-08-26T15:56:28.647Z,98045.13
2022-08-26T15:58:57.175Z,98046.75
2022-08-26T16:01:27.420Z,98050.50
2022-08-26T16:03:57.900Z,98048.69
2022-08-26T16:09:08.545Z,98039.88
2022-08-26T16:14:57.954Z,98045.78
2022-08-26T16:17:28.232Z,98035.63
2022-08-26T16:20:07.069Z,98040.56
2022-08-26T16:22:40.094Z,98041.84
